sensor_id;sensor_type;location;lat;lon;timestamp;P1;durP1;ratioP1;P2;durP2;ratioP2
836;SDS011;400;53.550;9.932;2024-03-17T00:00:10;14.82;;;3.30;;
836;SDS011;400;53.550;9.932;2024-03-17T00:02:41;7.38;;;2.25;;
836;SDS011;400;53.550;9.932;2024-03-17T00:05:08;9.43;;;2.30;;
836;SDS011;400;53.550;9.932;2024-03-17T00:07:35;9.50;;;2.70;;
836;SDS011;400;53.550;9.932;2024-03-17T00:10:02;12.25;;;3.78;;
836;SDS011;400;53.550;9.932;2024-03-17T00:12:28;14.10;;;3.75;;
836;SDS011;400;53.550;9.932;2024-03-17T00:14:55;11.57;;;4.22;;
836;SDS011;400;53.550;9.932;2024-03-17T00:17:21;6.68;;;3.35;;
836;SDS011;400;53.550;9.932;2024-03-17T00:19:49;10.23;;;2.35;;
836;SDS011;400;53.550;9.932;2024-03-17T00:22:15;12.07;;;3.00;;
836;SDS011;400;53.550;9.932;2024-03-17T00:24:42;14.40;;;2.53;;
836;SDS011;400;53.550;9.932;2024-03-17T00:27:08;10.63;;;2.70;;
836;SDS011;400;53.550;9.932;2024-03-17T00:29:37;9.15;;;2.60;;
836;SDS011;400;53.550;9.932;2024-03-17T00:32:03;14.80;;;4.80;;
836;SDS011;400;53.550;9.932;2024-03-17T00:34:32;12.20;;;3.33;;
836;SDS011;400;53.550;9.932;2024-03-17T00:37:07;5.60;;;2.25;;
836;SDS011;400;53.550;9.932;2024-03-17T00:39:34;12.77;;;4.00;;
836;SDS011;400;53.550;9.932;2024-03-17T00:42:01;11.97;;;3.37;;
836;SDS011;400;53.550;9.932;2024-03-17T00:44:33;6.50;;;2.67;;
836;SDS011;400;53.550;9.932;2024-03-17T00:47:02;9.60;;;2.60;;
836;SDS011;400;53.550;9.932;2024-03-17T00:49:29;11.73;;;3.05;;
836;SDS011;400;53.550;9.932;2024-03-17T00:51:55;8.27;;;2.30;;
836;SDS011;400;53.550;9.932;2024-03-17T00:54:23;8.25;;;2.63;;
836;SDS011;400;53.550;9.932;2024-03-17T00:56:49;11.90;;;2.35;;
836;SDS011;400;53.550;9.932;2024-03-17T00:59:18;10.07;;;4.00;;
836;SDS011;400;53.550;9.932;2024-03-17T01:01:46;14.38;;;3.28;;
836;SDS011;400;53.550;9.932;2024-03-17T01:04:16;7.05;;;2.42;;
836;SDS011;400;53.550;9.932;2024-03-17T01:06:42;13.57;;;3.93;;
836;SDS011;400;53.550;9.932;2024-03-17T01:09:09;11.77;;;3.35;;
836;SDS011;400;53.550;9.932;2024-03-17T01:11:36;13.90;;;3.63;;
836;SDS011;400;53.550;9.932;2024-03-17T01:14:04;11.18;;;3.75;;
836;SDS011;400;53.550;9.932;2024-03-17T01:16:30;12.70;;;3.63;;
836;SDS011;400;53.550;9.932;2024-03-17T01:18:56;11.45;;;3.80;;
836;SDS011;400;53.550;9.932;2024-03-17T01:21:23;9.63;;;2.23;;
836;SDS011;400;53.550;9.932;2024-03-17T01:23:50;7.32;;;1.95;;
836;SDS011;400;53.550;9.932;2024-03-17T01:26:16;10.02;;;3.28;;
836;SDS011;400;53.550;9.932;2024-03-17T01:28:44;11.48;;;2.35;;
836;SDS011;400;53.550;9.932;2024-03-17T01:31:10;8.15;;;2.60;;
836;SDS011;400;53.550;9.932;2024-03-17T01:33:37;8.55;;;2.70;;
836;SDS011;400;53.550;9.932;2024-03-17T01:36:03;10.30;;;2.93;;
836;SDS011;400;53.550;9.932;2024-03-17T01:38:30;18.65;;;3.15;;
836;SDS011;400;53.550;9.932;2024-03-17T01:40:57;9.35;;;3.00;;
836;SDS011;400;53.550;9.932;2024-03-17T01:43:24;15.73;;;4.05;;
836;SDS011;400;53.550;9.932;2024-03-17T01:45:53;7.78;;;2.80;;
836;SDS011;400;53.550;9.932;2024-03-17T01:48:20;12.55;;;3.05;;
836;SDS011;400;53.550;9.932;2024-03-17T01:50:46;6.90;;;2.08;;
836;SDS011;400;53.550;9.932;2024-03-17T01:53:15;8.50;;;2.65;;
836;SDS011;400;53.550;9.932;2024-03-17T01:55:42;5.47;;;2.10;;
836;SDS011;400;53.550;9.932;2024-03-17T01:58:10;13.15;;;3.28;;
836;SDS011;400;53.550;9.932;2024-03-17T02:00:37;7.22;;;3.03;;
836;SDS011;400;53.550;9.932;2024-03-17T02:03:06;15.95;;;3.17;;
836;SDS011;400;53.550;9.932;2024-03-17T02:05:33;10.68;;;3.08;;
836;SDS011;400;53.550;9.932;2024-03-17T02:08:02;11.32;;;3.05;;
836;SDS011;400;53.550;9.932;2024-03-17T02:10:28;15.07;;;5.40;;
836;SDS011;400;53.550;9.932;2024-03-17T02:12:55;14.35;;;3.05;;
836;SDS011;400;53.550;9.932;2024-03-17T02:15:21;9.10;;;2.70;;
836;SDS011;400;53.550;9.932;2024-03-17T02:17:48;8.23;;;2.72;;
836;SDS011;400;53.550;9.932;2024-03-17T02:20:16;14.23;;;3.78;;
836;SDS011;400;53.550;9.932;2024-03-17T02:22:44;14.32;;;3.78;;
836;SDS011;400;53.550;9.932;2024-03-17T02:25:10;10.25;;;3.03;;
836;SDS011;400;53.550;9.932;2024-03-17T02:27:37;12.32;;;2.42;;
836;SDS011;400;53.550;9.932;2024-03-17T02:30:03;11.07;;;3.05;;
836;SDS011;400;53.550;9.932;2024-03-17T02:32:32;13.68;;;3.53;;
836;SDS011;400;53.550;9.932;2024-03-17T02:34:58;11.68;;;2.85;;
836;SDS011;400;53.550;9.932;2024-03-17T02:37:30;11.43;;;3.75;;
836;SDS011;400;53.550;9.932;2024-03-17T02:39:57;11.50;;;2.90;;
836;SDS011;400;53.550;9.932;2024-03-17T02:42:24;10.23;;;3.88;;
836;SDS011;400;53.550;9.932;2024-03-17T02:44:51;11.95;;;4.38;;
836;SDS011;400;53.550;9.932;2024-03-17T02:47:18;12.57;;;3.42;;
836;SDS011;400;53.550;9.932;2024-03-17T02:49:45;13.63;;;3.20;;
836;SDS011;400;53.550;9.932;2024-03-17T02:52:15;9.18;;;3.40;;
836;SDS011;400;53.550;9.932;2024-03-17T02:54:42;11.20;;;3.63;;
836;SDS011;400;53.550;9.932;2024-03-17T02:57:12;15.63;;;3.45;;
836;SDS011;400;53.550;9.932;2024-03-17T02:59:39;13.55;;;3.33;;
836;SDS011;400;53.550;9.932;2024-03-17T03:02:06;17.90;;;4.10;;
836;SDS011;400;53.550;9.932;2024-03-17T03:04:33;13.98;;;3.50;;
836;SDS011;400;53.550;9.932;2024-03-17T03:07:00;11.38;;;3.53;;
836;SDS011;400;53.550;9.932;2024-03-17T03:09:27;10.00;;;2.95;;
836;SDS011;400;53.550;9.932;2024-03-17T03:11:57;9.88;;;3.85;;
836;SDS011;400;53.550;9.932;2024-03-17T03:14:26;11.27;;;3.53;;
836;SDS011;400;53.550;9.932;2024-03-17T03:16:52;9.32;;;3.58;;
836;SDS011;400;53.550;9.932;2024-03-17T03:19:19;19.58;;;4.68;;
836;SDS011;400;53.550;9.932;2024-03-17T03:21:46;12.05;;;3.20;;
836;SDS011;400;53.550;9.932;2024-03-17T03:24:13;9.80;;;3.47;;
836;SDS011;400;53.550;9.932;2024-03-17T03:26:40;19.30;;;4.88;;
836;SDS011;400;53.550;9.932;2024-03-17T03:29:08;13.40;;;4.78;;
836;SDS011;400;53.550;9.932;2024-03-17T03:31:37;10.57;;;3.70;;
836;SDS011;400;53.550;9.932;2024-03-17T03:34:04;11.73;;;3.40;;
836;SDS011;400;53.550;9.932;2024-03-17T03:36:33;12.48;;;4.90;;
836;SDS011;400;53.550;9.932;2024-03-17T03:39:00;15.50;;;4.05;;
836;SDS011;400;53.550;9.932;2024-03-17T03:41:30;9.02;;;4.15;;
836;SDS011;400;53.550;9.932;2024-03-17T03:43:57;14.20;;;4.10;;
836;SDS011;400;53.550;9.932;2024-03-17T03:46:24;11.02;;;5.03;;
836;SDS011;400;53.550;9.932;2024-03-17T03:48:53;11.65;;;4.00;;
836;SDS011;400;53.550;9.932;2024-03-17T03:51:21;17.90;;;4.97;;
836;SDS011;400;53.550;9.932;2024-03-17T03:53:48;9.07;;;3.90;;
836;SDS011;400;53.550;9.932;2024-03-17T03:56:17;15.85;;;4.30;;
836;SDS011;400;53.550;9.932;2024-03-17T03:58:45;13.70;;;4.53;;
836;SDS011;400;53.550;9.932;2024-03-17T04:01:12;11.65;;;4.20;;
836;SDS011;400;53.550;9.932;2024-03-17T04:03:46;15.13;;;4.60;;
836;SDS011;400;53.550;9.932;2024-03-17T04:06:14;13.73;;;3.75;;
836;SDS011;400;53.550;9.932;2024-03-17T04:08:42;25.70;;;4.15;;
836;SDS011;400;53.550;9.932;2024-03-17T04:11:09;12.15;;;4.28;;
836;SDS011;400;53.550;9.932;2024-03-17T04:13:36;11.93;;;4.35;;
836;SDS011;400;53.550;9.932;2024-03-17T04:16:03;13.90;;;4.80;;
836;SDS011;400;53.550;9.932;2024-03-17T04:18:31;10.75;;;4.40;;
836;SDS011;400;53.550;9.932;2024-03-17T04:21:01;15.57;;;7.15;;
836;SDS011;400;53.550;9.932;2024-03-17T04:23:30;35.75;;;18.20;;
836;SDS011;400;53.550;9.932;2024-03-17T04:25:58;11.40;;;5.80;;
836;SDS011;400;53.550;9.932;2024-03-17T04:28:26;15.05;;;4.45;;
836;SDS011;400;53.550;9.932;2024-03-17T04:30:53;12.43;;;4.00;;
836;SDS011;400;53.550;9.932;2024-03-17T04:33:29;15.90;;;5.10;;
836;SDS011;400;53.550;9.932;2024-03-17T04:35:56;10.70;;;5.90;;
836;SDS011;400;53.550;9.932;2024-03-17T04:38:23;13.38;;;4.05;;
836;SDS011;400;53.550;9.932;2024-03-17T04:40:54;9.48;;;4.00;;
836;SDS011;400;53.550;9.932;2024-03-17T04:43:31;10.90;;;4.43;;
836;SDS011;400;53.550;9.932;2024-03-17T04:46:03;8.20;;;4.30;;
836;SDS011;400;53.550;9.932;2024-03-17T04:48:39;13.32;;;4.75;;
836;SDS011;400;53.550;9.932;2024-03-17T04:51:14;10.60;;;3.95;;
836;SDS011;400;53.550;9.932;2024-03-17T04:53:41;12.57;;;4.30;;
836;SDS011;400;53.550;9.932;2024-03-17T04:56:09;15.30;;;4.20;;
836;SDS011;400;53.550;9.932;2024-03-17T04:58:36;9.77;;;5.38;;
836;SDS011;400;53.550;9.932;2024-03-17T05:01:04;8.50;;;3.72;;
836;SDS011;400;53.550;9.932;2024-03-17T05:03:31;11.10;;;4.13;;
836;SDS011;400;53.550;9.932;2024-03-17T05:05:59;8.88;;;4.25;;
836;SDS011;400;53.550;9.932;2024-03-17T05:08:29;17.83;;;4.47;;
836;SDS011;400;53.550;9.932;2024-03-17T05:10:57;8.10;;;3.85;;
836;SDS011;400;53.550;9.932;2024-03-17T05:13:26;14.98;;;4.07;;
836;SDS011;400;53.550;9.932;2024-03-17T05:15:53;11.88;;;3.42;;
836;SDS011;400;53.550;9.932;2024-03-17T05:18:20;10.50;;;3.65;;
836;SDS011;400;53.550;9.932;2024-03-17T05:20:56;9.52;;;3.90;;
836;SDS011;400;53.550;9.932;2024-03-17T05:23:24;11.40;;;4.03;;
836;SDS011;400;53.550;9.932;2024-03-17T05:25:52;18.50;;;4.50;;
836;SDS011;400;53.550;9.932;2024-03-17T05:28:19;11.85;;;4.40;;
836;SDS011;400;53.550;9.932;2024-03-17T05:30:48;7.90;;;5.13;;
836;SDS011;400;53.550;9.932;2024-03-17T05:33:17;12.20;;;5.20;;
836;SDS011;400;53.550;9.932;2024-03-17T05:35:49;17.10;;;4.65;;
836;SDS011;400;53.550;9.932;2024-03-17T05:38:17;11.93;;;4.63;;
836;SDS011;400;53.550;9.932;2024-03-17T05:40:52;14.70;;;5.43;;
836;SDS011;400;53.550;9.932;2024-03-17T05:43:19;11.38;;;4.80;;
836;SDS011;400;53.550;9.932;2024-03-17T05:45:51;12.63;;;5.60;;
836;SDS011;400;53.550;9.932;2024-03-17T05:48:18;12.65;;;6.32;;
836;SDS011;400;53.550;9.932;2024-03-17T05:50:45;17.83;;;6.70;;
836;SDS011;400;53.550;9.932;2024-03-17T05:53:12;17.45;;;6.53;;
836;SDS011;400;53.550;9.932;2024-03-17T05:55:40;14.10;;;6.20;;
836;SDS011;400;53.550;9.932;2024-03-17T05:58:08;17.58;;;6.13;;
836;SDS011;400;53.550;9.932;2024-03-17T06:00:35;12.15;;;5.40;;
836;SDS011;400;53.550;9.932;2024-03-17T06:03:04;16.35;;;5.88;;
836;SDS011;400;53.550;9.932;2024-03-17T06:05:32;9.75;;;5.05;;
836;SDS011;400;53.550;9.932;2024-03-17T06:07:59;13.15;;;4.97;;
836;SDS011;400;53.550;9.932;2024-03-17T06:10:27;14.57;;;5.75;;
836;SDS011;400;53.550;9.932;2024-03-17T06:12:55;14.80;;;5.53;;
836;SDS011;400;53.550;9.932;2024-03-17T06:15:22;13.10;;;5.13;;
836;SDS011;400;53.550;9.932;2024-03-17T06:17:49;15.93;;;5.90;;
836;SDS011;400;53.550;9.932;2024-03-17T06:20:18;14.45;;;5.40;;
836;SDS011;400;53.550;9.932;2024-03-17T06:22:46;12.32;;;5.28;;
836;SDS011;400;53.550;9.932;2024-03-17T06:25:13;13.75;;;5.43;;
836;SDS011;400;53.550;9.932;2024-03-17T06:27:40;11.65;;;4.97;;
836;SDS011;400;53.550;9.932;2024-03-17T06:30:10;11.55;;;5.78;;
836;SDS011;400;53.550;9.932;2024-03-17T06:32:39;13.40;;;6.07;;
836;SDS011;400;53.550;9.932;2024-03-17T06:35:06;13.07;;;5.05;;
836;SDS011;400;53.550;9.932;2024-03-17T06:37:35;12.07;;;5.13;;
836;SDS011;400;53.550;9.932;2024-03-17T06:40:02;9.13;;;4.60;;
836;SDS011;400;53.550;9.932;2024-03-17T06:42:29;11.43;;;5.00;;
836;SDS011;400;53.550;9.932;2024-03-17T06:44:56;8.68;;;4.65;;
836;SDS011;400;53.550;9.932;2024-03-17T06:47:23;8.98;;;4.70;;
836;SDS011;400;53.550;9.932;2024-03-17T06:49:51;8.82;;;4.10;;
836;SDS011;400;53.550;9.932;2024-03-17T06:52:18;9.35;;;4.57;;
836;SDS011;400;53.550;9.932;2024-03-17T06:54:48;7.97;;;3.60;;
836;SDS011;400;53.550;9.932;2024-03-17T06:57:16;9.95;;;5.32;;
836;SDS011;400;53.550;9.932;2024-03-17T06:59:43;10.43;;;4.10;;
836;SDS011;400;53.550;9.932;2024-03-17T07:02:11;8.30;;;4.40;;
836;SDS011;400;53.550;9.932;2024-03-17T07:04:42;7.65;;;3.47;;
836;SDS011;400;53.550;9.932;2024-03-17T07:07:10;9.50;;;3.20;;
836;SDS011;400;53.550;9.932;2024-03-17T07:09:42;8.25;;;3.55;;
836;SDS011;400;53.550;9.932;2024-03-17T07:12:13;5.93;;;2.40;;
836;SDS011;400;53.550;9.932;2024-03-17T07:14:39;7.88;;;3.47;;
836;SDS011;400;53.550;9.932;2024-03-17T07:17:06;6.28;;;3.10;;
836;SDS011;400;53.550;9.932;2024-03-17T07:19:33;7.53;;;2.10;;
836;SDS011;400;53.550;9.932;2024-03-17T07:22:01;4.82;;;2.20;;
836;SDS011;400;53.550;9.932;2024-03-17T07:24:28;5.93;;;1.77;;
836;SDS011;400;53.550;9.932;2024-03-17T07:26:55;7.28;;;2.65;;
836;SDS011;400;53.550;9.932;2024-03-17T07:29:24;8.65;;;2.45;;
836;SDS011;400;53.550;9.932;2024-03-17T07:31:50;7.28;;;2.85;;
836;SDS011;400;53.550;9.932;2024-03-17T07:34:17;10.80;;;3.13;;
836;SDS011;400;53.550;9.932;2024-03-17T07:36:45;10.65;;;2.70;;
836;SDS011;400;53.550;9.932;2024-03-17T07:39:13;10.13;;;2.03;;
836;SDS011;400;53.550;9.932;2024-03-17T07:41:44;7.13;;;2.78;;
836;SDS011;400;53.550;9.932;2024-03-17T07:44:18;4.60;;;2.05;;
836;SDS011;400;53.550;9.932;2024-03-17T07:46:45;8.13;;;2.10;;
836;SDS011;400;53.550;9.932;2024-03-17T07:49:12;7.60;;;2.20;;
836;SDS011;400;53.550;9.932;2024-03-17T07:51:40;5.05;;;2.00;;
836;SDS011;400;53.550;9.932;2024-03-17T07:54:06;5.53;;;1.50;;
836;SDS011;400;53.550;9.932;2024-03-17T07:56:33;3.67;;;1.65;;
836;SDS011;400;53.550;9.932;2024-03-17T07:59:00;4.43;;;1.70;;
836;SDS011;400;53.550;9.932;2024-03-17T08:01:36;5.30;;;2.50;;
836;SDS011;400;53.550;9.932;2024-03-17T08:04:03;11.18;;;2.00;;
836;SDS011;400;53.550;9.932;2024-03-17T08:06:30;10.68;;;2.05;;
836;SDS011;400;53.550;9.932;2024-03-17T08:08:57;6.72;;;1.70;;
836;SDS011;400;53.550;9.932;2024-03-17T08:11:23;6.22;;;1.73;;
836;SDS011;400;53.550;9.932;2024-03-17T08:13:51;6.78;;;1.77;;
836;SDS011;400;53.550;9.932;2024-03-17T08:16:19;6.10;;;1.52;;
836;SDS011;400;53.550;9.932;2024-03-17T08:18:47;4.57;;;1.70;;
836;SDS011;400;53.550;9.932;2024-03-17T08:21:15;10.93;;;2.47;;
836;SDS011;400;53.550;9.932;2024-03-17T08:23:46;7.82;;;2.08;;
836;SDS011;400;53.550;9.932;2024-03-17T08:26:13;6.20;;;1.83;;
836;SDS011;400;53.550;9.932;2024-03-17T08:28:40;6.05;;;1.48;;
836;SDS011;400;53.550;9.932;2024-03-17T08:31:07;5.43;;;2.17;;
836;SDS011;400;53.550;9.932;2024-03-17T08:33:34;5.35;;;1.60;;
836;SDS011;400;53.550;9.932;2024-03-17T08:36:05;7.68;;;1.65;;
836;SDS011;400;53.550;9.932;2024-03-17T08:38:34;5.78;;;1.70;;
836;SDS011;400;53.550;9.932;2024-03-17T08:41:05;5.65;;;1.50;;
836;SDS011;400;53.550;9.932;2024-03-17T08:43:34;5.95;;;2.20;;
836;SDS011;400;53.550;9.932;2024-03-17T08:46:01;7.05;;;1.88;;
836;SDS011;400;53.550;9.932;2024-03-17T08:48:30;4.38;;;1.35;;
836;SDS011;400;53.550;9.932;2024-03-17T08:51:07;5.13;;;1.67;;
836;SDS011;400;53.550;9.932;2024-03-17T08:53:35;4.07;;;1.50;;
836;SDS011;400;53.550;9.932;2024-03-17T08:56:07;8.23;;;1.90;;
836;SDS011;400;53.550;9.932;2024-03-17T08:58:33;3.90;;;1.50;;
836;SDS011;400;53.550;9.932;2024-03-17T09:01:03;3.67;;;1.38;;
836;SDS011;400;53.550;9.932;2024-03-17T09:03:32;6.22;;;1.30;;
836;SDS011;400;53.550;9.932;2024-03-17T09:06:04;3.45;;;1.60;;
836;SDS011;400;53.550;9.932;2024-03-17T09:08:46;2.70;;;1.83;;
836;SDS011;400;53.550;9.932;2024-03-17T09:11:19;6.95;;;1.85;;
836;SDS011;400;53.550;9.932;2024-03-17T09:13:52;4.80;;;1.00;;
836;SDS011;400;53.550;9.932;2024-03-17T09:16:20;3.13;;;1.33;;
836;SDS011;400;53.550;9.932;2024-03-17T09:18:48;5.70;;;1.60;;
836;SDS011;400;53.550;9.932;2024-03-17T09:21:16;7.75;;;1.15;;
836;SDS011;400;53.550;9.932;2024-03-17T09:23:44;5.63;;;1.50;;
836;SDS011;400;53.550;9.932;2024-03-17T09:26:13;5.90;;;1.40;;
836;SDS011;400;53.550;9.932;2024-03-17T09:28:42;5.55;;;1.67;;
836;SDS011;400;53.550;9.932;2024-03-17T09:31:17;5.82;;;1.67;;
836;SDS011;400;53.550;9.932;2024-03-17T09:33:50;6.90;;;1.48;;
836;SDS011;400;53.550;9.932;2024-03-17T09:38:57;3.65;;;1.15;;
836;SDS011;400;53.550;9.932;2024-03-17T09:41:25;3.13;;;1.15;;
836;SDS011;400;53.550;9.932;2024-03-17T09:43:55;2.60;;;1.10;;
836;SDS011;400;53.550;9.932;2024-03-17T09:46:33;9.00;;;1.73;;
836;SDS011;400;53.550;9.932;2024-03-17T09:49:10;4.13;;;1.13;;
836;SDS011;400;53.550;9.932;2024-03-17T09:51:44;5.25;;;1.15;;
836;SDS011;400;53.550;9.932;2024-03-17T09:54:18;5.55;;;1.25;;
836;SDS011;400;53.550;9.932;2024-03-17T09:56:45;5.50;;;1.80;;
836;SDS011;400;53.550;9.932;2024-03-17T09:59:13;1.58;;;1.10;;
836;SDS011;400;53.550;9.932;2024-03-17T10:01:40;2.08;;;1.23;;
836;SDS011;400;53.550;9.932;2024-03-17T10:04:13;1.25;;;0.90;;
836;SDS011;400;53.550;9.932;2024-03-17T10:06:57;3.13;;;2.10;;
836;SDS011;400;53.550;9.932;2024-03-17T10:09:25;12.50;;;7.78;;
836;SDS011;400;53.550;9.932;2024-03-17T10:12:01;5.35;;;1.80;;
836;SDS011;400;53.550;9.932;2024-03-17T10:14:32;4.45;;;1.60;;
836;SDS011;400;53.550;9.932;2024-03-17T10:17:03;2.20;;;1.00;;
836;SDS011;400;53.550;9.932;2024-03-17T10:19:30;2.70;;;1.08;;
836;SDS011;400;53.550;9.932;2024-03-17T10:22:11;4.90;;;1.43;;
836;SDS011;400;53.550;9.932;2024-03-17T10:24:40;4.07;;;1.40;;
836;SDS011;400;53.550;9.932;2024-03-17T10:27:10;6.18;;;1.48;;
836;SDS011;400;53.550;9.932;2024-03-17T10:29:42;2.17;;;0.77;;
836;SDS011;400;53.550;9.932;2024-03-17T10:32:13;4.00;;;1.10;;
836;SDS011;400;53.550;9.932;2024-03-17T10:34:41;5.45;;;1.63;;
836;SDS011;400;53.550;9.932;2024-03-17T10:37:10;8.00;;;1.10;;
836;SDS011;400;53.550;9.932;2024-03-17T10:39:42;2.15;;;0.63;;
836;SDS011;400;53.550;9.932;2024-03-17T10:42:13;3.45;;;1.20;;
836;SDS011;400;53.550;9.932;2024-03-17T10:44:41;7.10;;;1.60;;
836;SDS011;400;53.550;9.932;2024-03-17T10:47:16;1.83;;;1.03;;
836;SDS011;400;53.550;9.932;2024-03-17T10:49:51;3.35;;;1.25;;
836;SDS011;400;53.550;9.932;2024-03-17T10:52:30;4.65;;;1.35;;
836;SDS011;400;53.550;9.932;2024-03-17T10:55:19;6.95;;;1.45;;
836;SDS011;400;53.550;9.932;2024-03-17T10:57:48;4.53;;;1.50;;
836;SDS011;400;53.550;9.932;2024-03-17T11:00:17;3.90;;;1.05;;
836;SDS011;400;53.550;9.932;2024-03-17T11:02:50;4.70;;;1.67;;
836;SDS011;400;53.550;9.932;2024-03-17T11:05:22;6.13;;;2.20;;
836;SDS011;400;53.550;9.932;2024-03-17T11:07:55;4.03;;;1.00;;
836;SDS011;400;53.550;9.932;2024-03-17T11:10:33;4.78;;;1.45;;
836;SDS011;400;53.550;9.932;2024-03-17T11:13:04;7.22;;;1.70;;
836;SDS011;400;53.550;9.932;2024-03-17T11:15:38;3.20;;;1.60;;
836;SDS011;400;53.550;9.932;2024-03-17T11:21:00;6.00;;;2.80;;
836;SDS011;400;53.550;9.932;2024-03-17T11:23:33;4.40;;;1.40;;
836;SDS011;400;53.550;9.932;2024-03-17T11:26:03;3.20;;;1.20;;
836;SDS011;400;53.550;9.932;2024-03-17T11:28:47;5.77;;;1.60;;
836;SDS011;400;53.550;9.932;2024-03-17T11:31:34;5.17;;;1.73;;
836;SDS011;400;53.550;9.932;2024-03-17T11:34:29;5.67;;;1.33;;
836;SDS011;400;53.550;9.932;2024-03-17T11:37:04;4.47;;;2.00;;
836;SDS011;400;53.550;9.932;2024-03-17T11:39:57;3.60;;;1.53;;
836;SDS011;400;53.550;9.932;2024-03-17T11:42:28;4.30;;;1.50;;
836;SDS011;400;53.550;9.932;2024-03-17T11:45:02;3.80;;;1.40;;
836;SDS011;400;53.550;9.932;2024-03-17T11:47:35;6.03;;;1.97;;
836;SDS011;400;53.550;9.932;2024-03-17T11:50:06;2.73;;;1.70;;
836;SDS011;400;53.550;9.932;2024-03-17T11:52:40;4.60;;;1.30;;
836;SDS011;400;53.550;9.932;2024-03-17T11:55:18;3.40;;;1.40;;
836;SDS011;400;53.550;9.932;2024-03-17T11:57:50;5.27;;;1.40;;
836;SDS011;400;53.550;9.932;2024-03-17T12:00:26;2.80;;;1.20;;
836;SDS011;400;53.550;9.932;2024-03-17T12:02:52;1.60;;;0.83;;
836;SDS011;400;53.550;9.932;2024-03-17T12:05:19;5.10;;;1.57;;
836;SDS011;400;53.550;9.932;2024-03-17T12:07:49;5.57;;;2.57;;
836;SDS011;400;53.550;9.932;2024-03-17T12:10:19;6.50;;;1.77;;
836;SDS011;400;53.550;9.932;2024-03-17T12:12:46;4.27;;;1.50;;
836;SDS011;400;53.550;9.932;2024-03-17T12:15:17;2.30;;;1.17;;
836;SDS011;400;53.550;9.932;2024-03-17T12:17:51;2.77;;;1.30;;
836;SDS011;400;53.550;9.932;2024-03-17T12:20:22;2.97;;;1.40;;
836;SDS011;400;53.550;9.932;2024-03-17T12:22:51;3.90;;;1.53;;
836;SDS011;400;53.550;9.932;2024-03-17T12:25:20;5.93;;;1.53;;
836;SDS011;400;53.550;9.932;2024-03-17T12:27:49;4.30;;;1.63;;
836;SDS011;400;53.550;9.932;2024-03-17T12:30:16;8.17;;;2.13;;
836;SDS011;400;53.550;9.932;2024-03-17T12:32:54;4.87;;;2.10;;
836;SDS011;400;53.550;9.932;2024-03-17T12:35:26;5.80;;;1.57;;
836;SDS011;400;53.550;9.932;2024-03-17T12:38:01;4.00;;;1.70;;
836;SDS011;400;53.550;9.932;2024-03-17T12:40:27;2.87;;;1.00;;
836;SDS011;400;53.550;9.932;2024-03-17T12:42:59;4.03;;;1.50;;
836;SDS011;400;53.550;9.932;2024-03-17T12:45:30;2.77;;;1.50;;
836;SDS011;400;53.550;9.932;2024-03-17T12:48:12;8.00;;;1.77;;
836;SDS011;400;53.550;9.932;2024-03-17T12:50:48;5.00;;;1.60;;
836;SDS011;400;53.550;9.932;2024-03-17T12:53:17;9.80;;;8.70;;
836;SDS011;400;53.550;9.932;2024-03-17T12:55:52;4.97;;;2.23;;
836;SDS011;400;53.550;9.932;2024-03-17T12:58:38;3.60;;;1.73;;
836;SDS011;400;53.550;9.932;2024-03-17T13:01:23;4.07;;;1.87;;
836;SDS011;400;53.550;9.932;2024-03-17T13:03:53;5.23;;;1.93;;
836;SDS011;400;53.550;9.932;2024-03-17T13:06:23;9.53;;;2.20;;
836;SDS011;400;53.550;9.932;2024-03-17T13:08:50;3.93;;;1.37;;
836;SDS011;400;53.550;9.932;2024-03-17T13:11:19;5.47;;;1.57;;
836;SDS011;400;53.550;9.932;2024-03-17T13:13:47;9.03;;;2.13;;
836;SDS011;400;53.550;9.932;2024-03-17T13:16:17;4.17;;;1.70;;
836;SDS011;400;53.550;9.932;2024-03-17T13:18:44;3.27;;;1.37;;
836;SDS011;400;53.550;9.932;2024-03-17T13:21:12;8.23;;;3.33;;
836;SDS011;400;53.550;9.932;2024-03-17T13:23:40;8.03;;;2.70;;
836;SDS011;400;53.550;9.932;2024-03-17T13:26:07;5.90;;;2.70;;
836;SDS011;400;53.550;9.932;2024-03-17T13:28:41;3.80;;;2.00;;
836;SDS011;400;53.550;9.932;2024-03-17T13:31:09;6.63;;;2.60;;
836;SDS011;400;53.550;9.932;2024-03-17T13:33:38;5.97;;;2.07;;
836;SDS011;400;53.550;9.932;2024-03-17T13:36:06;6.30;;;1.53;;
836;SDS011;400;53.550;9.932;2024-03-17T13:38:37;7.60;;;2.03;;
836;SDS011;400;53.550;9.932;2024-03-17T13:41:05;6.07;;;2.20;;
836;SDS011;400;53.550;9.932;2024-03-17T13:43:35;4.10;;;1.87;;
836;SDS011;400;53.550;9.932;2024-03-17T13:46:03;6.93;;;1.70;;
836;SDS011;400;53.550;9.932;2024-03-17T13:48:32;3.70;;;1.40;;
836;SDS011;400;53.550;9.932;2024-03-17T13:51:01;9.20;;;1.80;;
836;SDS011;400;53.550;9.932;2024-03-17T13:53:37;5.70;;;1.80;;
836;SDS011;400;53.550;9.932;2024-03-17T13:56:06;2.30;;;2.03;;
836;SDS011;400;53.550;9.932;2024-03-17T13:58:35;5.33;;;2.07;;
836;SDS011;400;53.550;9.932;2024-03-17T14:01:02;3.77;;;1.20;;
836;SDS011;400;53.550;9.932;2024-03-17T14:03:34;4.80;;;1.97;;
836;SDS011;400;53.550;9.932;2024-03-17T14:06:08;5.40;;;1.90;;
836;SDS011;400;53.550;9.932;2024-03-17T14:08:43;5.13;;;2.03;;
836;SDS011;400;53.550;9.932;2024-03-17T14:11:18;10.50;;;1.83;;
836;SDS011;400;53.550;9.932;2024-03-17T14:13:46;5.50;;;2.30;;
836;SDS011;400;53.550;9.932;2024-03-17T14:16:13;8.73;;;2.30;;
836;SDS011;400;53.550;9.932;2024-03-17T14:28:48;5.00;;;1.83;;
836;SDS011;400;53.550;9.932;2024-03-17T14:31:16;5.03;;;2.10;;
836;SDS011;400;53.550;9.932;2024-03-17T14:33:43;4.70;;;1.77;;
836;SDS011;400;53.550;9.932;2024-03-17T14:36:13;3.20;;;1.23;;
836;SDS011;400;53.550;9.932;2024-03-17T14:38:40;6.83;;;2.13;;
836;SDS011;400;53.550;9.932;2024-03-17T14:41:08;10.73;;;2.53;;
836;SDS011;400;53.550;9.932;2024-03-17T14:43:36;4.13;;;2.10;;
836;SDS011;400;53.550;9.932;2024-03-17T14:46:06;5.23;;;2.03;;
836;SDS011;400;53.550;9.932;2024-03-17T14:48:35;5.03;;;1.63;;
836;SDS011;400;53.550;9.932;2024-03-17T14:51:03;4.27;;;1.33;;
836;SDS011;400;53.550;9.932;2024-03-17T14:53:30;5.03;;;2.00;;
836;SDS011;400;53.550;9.932;2024-03-17T14:55:57;5.00;;;1.47;;
836;SDS011;400;53.550;9.932;2024-03-17T14:58:24;4.57;;;1.90;;
836;SDS011;400;53.550;9.932;2024-03-17T15:00:51;4.27;;;1.70;;
836;SDS011;400;53.550;9.932;2024-03-17T15:03:21;6.00;;;1.77;;
836;SDS011;400;53.550;9.932;2024-03-17T15:05:53;4.93;;;1.47;;
836;SDS011;400;53.550;9.932;2024-03-17T15:08:23;5.17;;;2.43;;
836;SDS011;400;53.550;9.932;2024-03-17T15:10:56;6.47;;;2.03;;
836;SDS011;400;53.550;9.932;2024-03-17T15:13:25;4.30;;;1.60;;
836;SDS011;400;53.550;9.932;2024-03-17T15:15:52;5.60;;;1.60;;
836;SDS011;400;53.550;9.932;2024-03-17T15:18:23;3.77;;;1.83;;
836;SDS011;400;53.550;9.932;2024-03-17T15:20:53;9.17;;;2.10;;
836;SDS011;400;53.550;9.932;2024-03-17T15:23:21;5.93;;;1.50;;
836;SDS011;400;53.550;9.932;2024-03-17T15:26:00;5.40;;;2.10;;
836;SDS011;400;53.550;9.932;2024-03-17T15:28:54;5.47;;;1.83;;
836;SDS011;400;53.550;9.932;2024-03-17T15:31:22;5.10;;;1.50;;
836;SDS011;400;53.550;9.932;2024-03-17T15:33:51;7.50;;;1.93;;
836;SDS011;400;53.550;9.932;2024-03-17T15:36:19;3.33;;;1.70;;
836;SDS011;400;53.550;9.932;2024-03-17T15:38:49;6.37;;;1.43;;
836;SDS011;400;53.550;9.932;2024-03-17T15:41:19;8.37;;;2.00;;
836;SDS011;400;53.550;9.932;2024-03-17T15:43:52;6.90;;;2.40;;
836;SDS011;400;53.550;9.932;2024-03-17T15:46:27;7.00;;;2.00;;
836;SDS011;400;53.550;9.932;2024-03-17T15:49:01;5.83;;;1.73;;
836;SDS011;400;53.550;9.932;2024-03-17T15:51:34;6.10;;;2.20;;
836;SDS011;400;53.550;9.932;2024-03-17T15:54:01;4.47;;;2.17;;
836;SDS011;400;53.550;9.932;2024-03-17T15:56:31;4.37;;;1.50;;
836;SDS011;400;53.550;9.932;2024-03-17T15:58:58;7.27;;;2.20;;
836;SDS011;400;53.550;9.932;2024-03-17T16:01:27;6.60;;;2.63;;
836;SDS011;400;53.550;9.932;2024-03-17T16:03:54;4.20;;;1.93;;
836;SDS011;400;53.550;9.932;2024-03-17T16:06:24;6.63;;;2.10;;
836;SDS011;400;53.550;9.932;2024-03-17T16:08:51;5.13;;;2.17;;